createdAt,value
2022-09-04T00:02:40.534Z,101101.00
2022-09-04T00:05:41.300Z,101109.00
2022-09-04T00:08:38.334Z,101105.00
2022-09-04T00:11:16.587Z,101101.00
2022-09-04T00:14:10.172Z,101089.00
2022-09-04T00:16:53.907Z,101086.00
2022-09-04T00:19:45.301Z,101082.00
2022-09-04T00:22:35.068Z,101084.00
2022-09-04T00:25:12.960Z,101081.00
2022-09-04T00:27:48.763Z,101087.00
2022-09-04T00:30:27.279Z,101080.00
2022-09-04T00:33:24.449Z,101084.00
2022-09-04T00:35:59.814Z,101079.00
2022-09-04T00:38:38.017Z,101083.00
2022-09-04T00:41:37.218Z,101089.00
2022-09-04T00:44:30.268Z,101091.00
2022-09-04T00:47:29.260Z,101085.00
2022-09-04T00:50:07.267Z,101083.00
2022-09-04T00:53:01.488Z,101080.00
2022-09-04T00:55:55.408Z,101073.00
2022-09-04T00:58:56.360Z,101075.00
2022-09-04T01:01:36.738Z,101068.00
2022-09-04T01:04:28.847Z,101067.00
2022-09-04T01:07:14.627Z,101073.00
2022-09-04T01:10:01.500Z,101068.00
2022-09-04T01:12:48.577Z,101070.00
2022-09-04T01:15:29.763Z,101058.00
2022-09-04T01:18:34.718Z,101055.00
2022-09-04T01:21:32.829Z,101049.00
2022-09-04T01:24:27.734Z,101048.00
2022-09-04T01:27:20.841Z,101048.00
2022-09-04T01:30:04.619Z,101061.00
2022-09-04T01:33:12.992Z,101053.00
2022-09-04T01:35:53.931Z,101044.00
2022-09-04T01:38:47.624Z,101052.00
2022-09-04T01:41:34.029Z,101040.00
2022-09-04T01:44:06.795Z,101034.00
2022-09-04T01:46:44.911Z,101026.00
2022-09-04T01:49:29.093Z,101032.00
2022-09-04T01:52:16.257Z,101034.00
2022-09-04T01:54:58.376Z,101030.00
2022-09-04T01:58:00.312Z,101022.00
2022-09-04T02:00:35.890Z,101013.00
2022-09-04T02:03:33.585Z,101010.00
2022-09-04T02:06:14.984Z,101001.00
2022-09-04T02:09:12.186Z,101007.00
2022-09-04T02:11:47.319Z,101003.00
2022-09-04T02:14:40.416Z,101003.00
2022-09-04T02:17:19.800Z,101006.00
2022-09-04T02:20:13.223Z,100991.00
2022-09-04T02:23:09.915Z,100984.00
2022-09-04T02:25:53.687Z,100993.00
2022-09-04T02:28:43.490Z,100984.00
2022-09-04T02:31:24.714Z,100989.00
2022-09-04T02:34:02.546Z,100989.00
2022-09-04T02:36:55.896Z,100987.00
2022-09-04T02:39:40.061Z,100968.00
2022-09-04T02:42:14.783Z,100967.00
2022-09-04T02:45:21.767Z,100957.00
2022-09-04T02:48:11.768Z,100946.00
2022-09-04T02:50:49.797Z,100955.00
2022-09-04T02:53:41.200Z,100954.00
2022-09-04T02:56:19.002Z,100954.00
2022-09-04T02:59:13.724Z,100940.00
2022-09-04T03:01:58.597Z,100950.00
2022-09-04T03:04:51.286Z,100933.00
2022-09-04T03:07:26.421Z,100940.00
2022-09-04T03:10:02.147Z,100929.00
2022-09-04T03:12:45.706Z,100944.00
2022-09-04T03:15:37.133Z,100934.00
2022-09-04T03:18:35.725Z,100940.00
2022-09-04T03:21:16.706Z,100946.00
2022-09-04T03:24:03.563Z,100951.00
2022-09-04T03:26:44.765Z,100942.00
2022-09-04T03:29:27.698Z,100927.00
2022-09-04T03:32:09.763Z,100928.00
2022-09-04T03:34:54.448Z,100924.00
2022-09-04T03:37:51.234Z,100924.00
2022-09-04T03:40:38.119Z,100921.00
2022-09-04T03:43:22.136Z,100919.00
2022-09-04T03:46:11.990Z,100912.00
2022-09-04T03:48:50.981Z,100920.00
2022-09-04T03:51:34.439Z,100927.00
2022-09-04T03:54:15.214Z,100933.00
2022-09-04T03:56:55.847Z,100931.00
2022-09-04T03:59:39.921Z,100933.00
2022-09-04T04:02:34.321Z,100931.00
2022-09-04T04:05:14.718Z,100943.00
2022-09-04T04:08:09.027Z,100939.00
2022-09-04T04:10:56.556Z,100943.00
2022-09-04T04:13:49.648Z,100943.00
2022-09-04T04:16:41.674Z,100929.00
2022-09-04T04:19:25.701Z,100934.00
2022-09-04T04:22:04.129Z,100929.00
2022-09-04T04:24:56.089Z,100922.00
2022-09-04T04:27:34.170Z,100917.00
2022-09-04T04:30:18.873Z,100913.00
2022-09-04T04:32:53.519Z,100911.00
2022-09-04T04:35:46.540Z,100910.00
2022-09-04T04:38:39.494Z,100912.00
2022-09-04T04:41:23.306Z,100907.00
2022-09-04T04:44:07.255Z,100908.00
2022-09-04T04:46:47.729Z,100913.00
2022-09-04T04:49:31.687Z,100918.00
2022-09-04T04:52:24.565Z,100914.00
2022-09-04T04:55:08.273Z,100915.00
2022-09-04T04:57:51.482Z,100916.00
2022-09-04T05:00:27.795Z,100912.00
2022-09-04T05:03:30.440Z,100914.00
2022-09-04T05:06:11.498Z,100920.00
2022-09-04T05:09:16.975Z,100904.00
2022-09-04T05:11:58.528Z,100898.00
2022-09-04T05:14:49.851Z,100907.00
2022-09-04T05:17:30.292Z,100912.00
2022-09-04T05:20:24.252Z,100911.00
2022-09-04T05:23:02.193Z,100909.00
2022-09-04T05:25:45.952Z,100907.00
2022-09-04T05:28:42.853Z,100922.00
2022-09-04T05:31:29.663Z,100937.00
2022-09-04T05:34:09.973Z,100935.00
2022-09-04T05:37:00.256Z,100948.00
2022-09-04T05:39:41.011Z,100952.00
2022-09-04T05:42:25.237Z,100946.00
2022-09-04T05:45:02.476Z,100952.00
2022-09-04T05:47:53.925Z,100952.00
2022-09-04T05:50:38.253Z,100957.00
2022-09-04T05:53:22.085Z,100975.00
2022-09-04T05:56:09.099Z,100975.00
2022-09-04T05:59:09.776Z,100985.00
2022-09-04T06:02:03.628Z,100993.00
2022-09-04T06:04:57.733Z,100984.00
2022-09-04T06:07:47.688Z,100986.00
2022-09-04T06:10:29.443Z,100990.00
2022-09-04T06:13:33.795Z,100994.00
2022-09-04T06:16:14.906Z,101000.00
2022-09-04T06:19:02.110Z,101000.00
2022-09-04T06:21:45.837Z,100998.00
2022-09-04T06:24:33.057Z,100998.00
2022-09-04T06:27:11.096Z,101002.00
2022-09-04T06:29:46.250Z,100999.00
2022-09-04T06:32:27.207Z,101001.00
2022-09-04T06:35:34.694Z,101013.00
2022-09-04T06:38:12.786Z,101013.00
2022-09-04T06:40:47.968Z,101004.00
2022-09-04T06:43:29.496Z,101010.00
2022-09-04T06:46:13.816Z,101012.00
2022-09-04T06:49:05.124Z,101019.00
2022-09-04T06:52:09.395Z,101023.00
2022-09-04T06:55:00.201Z,101017.00
2022-09-04T06:57:53.239Z,101010.00
2022-09-04T07:00:26.149Z,101007.00
2022-09-04T07:03:21.633Z,101007.00
2022-09-04T07:05:56.852Z,101002.00
2022-09-04T07:08:34.958Z,100994.00
2022-09-04T07:11:25.131Z,100991.00
2022-09-04T07:14:33.791Z,100993.00
2022-09-04T07:17:29.489Z,100980.00
2022-09-04T07:20:21.014Z,100979.00
2022-09-04T07:23:07.073Z,100985.00
2022-09-04T07:25:51.614Z,100983.00
2022-09-04T07:28:46.309Z,100977.00
2022-09-04T07:31:24.256Z,100975.00
2022-09-04T07:34:05.145Z,100976.00
2022-09-04T07:37:04.550Z,100972.00
2022-09-04T07:39:56.856Z,100978.00
2022-09-04T07:42:41.576Z,100954.00
2022-09-04T07:45:27.941Z,100957.00
2022-09-04T07:48:11.621Z,100960.00
2022-09-04T07:51:08.397Z,100954.00
2022-09-04T07:54:06.317Z,100948.00
2022-09-04T07:56:59.472Z,100952.00
2022-09-04T07:59:43.454Z,100955.00
2022-09-04T08:02:36.828Z,100947.00
2022-09-04T08:05:29.254Z,100938.00
2022-09-04T08:08:30.343Z,100933.00
2022-09-04T08:11:14.083Z,100937.00
2022-09-04T08:13:49.894Z,100931.00
2022-09-04T08:16:39.961Z,100924.00
2022-09-04T08:19:43.357Z,100921.00
2022-09-04T08:22:18.346Z,100912.00
2022-09-04T08:25:14.094Z,100910.00
2022-09-04T08:27:49.494Z,100900.00
2022-09-04T08:30:26.347Z,100902.00
2022-09-04T08:33:01.518Z,100906.00
2022-09-04T08:35:42.220Z,100915.00
2022-09-04T08:38:16.989Z,100910.00
2022-09-04T08:41:13.998Z,100898.00
2022-09-04T08:44:12.969Z,100898.00
2022-09-04T08:47:12.226Z,100905.00
2022-09-04T08:49:53.773Z,100889.00
2022-09-04T08:52:44.869Z,100896.00
2022-09-04T08:55:51.377Z,100899.00
2022-09-04T08:58:48.703Z,100898.00
2022-09-04T09:01:38.969Z,100899.00
2022-09-04T09:04:20.421Z,100893.00
2022-09-04T09:07:04.689Z,100889.00
2022-09-04T09:09:45.341Z,100899.00
2022-09-04T09:12:40.703Z,100897.00
2022-09-04T09:15:24.110Z,100892.00
2022-09-04T09:18:08.103Z,100883.00
2022-09-04T09:21:03.650Z,100869.00
2022-09-04T09:24:15.733Z,100876.00
2022-09-04T09:27:14.616Z,100878.00
2022-09-04T09:29:49.456Z,100882.00
2022-09-04T09:32:51.834Z,100871.00
2022-09-04T09:35:56.072Z,100867.00
2022-09-04T09:38:43.424Z,100880.00
2022-09-04T09:41:23.782Z,100873.00
2022-09-04T09:44:21.026Z,100867.00
2022-09-04T09:46:59.875Z,100871.00
2022-09-04T09:49:51.584Z,100869.00
2022-09-04T09:52:30.360Z,100821.00
2022-09-04T09:55:24.350Z,100857.00
2022-09-04T09:58:21.176Z,100847.00
2022-09-04T10:01:08.518Z,100843.00
2022-09-04T10:04:06.159Z,100830.00
2022-09-04T10:07:04.235Z,100834.00
2022-09-04T10:09:55.972Z,100828.00
2022-09-04T10:12:47.395Z,100821.00
2022-09-04T10:15:50.364Z,100827.00
2022-09-04T10:18:37.569Z,100826.00
2022-09-04T10:21:28.932Z,100834.00
2022-09-04T10:24:20.566Z,100838.00
2022-09-04T10:27:21.076Z,100830.00
2022-09-04T10:30:18.340Z,100832.00
2022-09-04T10:33:11.817Z,100832.00
2022-09-04T10:36:01.486Z,100826.00
2022-09-04T10:38:43.016Z,100832.00
2022-09-04T10:41:42.056Z,100837.00
2022-09-04T10:44:17.069Z,100833.00
2022-09-04T10:47:03.932Z,100817.00
2022-09-04T10:49:38.678Z,100812.00
2022-09-04T10:52:42.648Z,100807.00
2022-09-04T10:55:26.377Z,100810.00
2022-09-04T10:58:19.029Z,100801.00
2022-09-04T11:01:13.595Z,100802.00
2022-09-04T11:03:57.879Z,100803.00
2022-09-04T11:06:54.663Z,100789.00
2022-09-04T11:09:35.466Z,100784.00
2022-09-04T11:12:41.707Z,100783.00
2022-09-04T11:15:48.343Z,100768.00
2022-09-04T11:18:39.879Z,100776.00
2022-09-04T11:21:27.646Z,100778.00
2022-09-04T11:24:31.175Z,100776.00
2022-09-04T11:27:14.649Z,100770.00
2022-09-04T11:29:53.841Z,100764.00
2022-09-04T11:32:28.568Z,100781.00
2022-09-04T11:35:22.574Z,100780.00
2022-09-04T11:38:16.379Z,100772.00
2022-09-04T11:41:26.463Z,100768.00
2022-09-04T11:44:13.603Z,100764.00
2022-09-04T11:47:04.346Z,100769.00
2022-09-04T11:49:47.718Z,100756.00
2022-09-04T11:52:32.916Z,100770.00
2022-09-04T11:55:13.606Z,100781.00
2022-09-04T11:57:49.694Z,100782.00
2022-09-04T12:00:23.486Z,100779.00
2022-09-04T12:03:00.662Z,100784.00
2022-09-04T12:05:51.930Z,100766.00
2022-09-04T12:08:43.470Z,100767.00
2022-09-04T12:11:27.045Z,100768.00
2022-09-04T12:14:21.742Z,100767.00
2022-09-04T12:17:20.928Z,100773.00
2022-09-04T12:20:11.117Z,100759.00
2022-09-04T12:22:51.211Z,100740.00
2022-09-04T12:25:51.788Z,100745.00
2022-09-04T12:28:50.755Z,100728.00
2022-09-04T12:31:58.892Z,100723.00
2022-09-04T12:35:01.958Z,100714.00
2022-09-04T12:37:59.345Z,100714.00
2022-09-04T12:40:43.550Z,100718.00
2022-09-04T12:43:38.785Z,100704.00
2022-09-04T12:46:33.835Z,100704.00
2022-09-04T12:49:28.890Z,100716.00
2022-09-04T12:52:21.946Z,100710.00
2022-09-04T12:55:16.926Z,100712.00
2022-09-04T12:58:04.382Z,100708.00
2022-09-04T13:00:48.462Z,100700.00
2022-09-04T13:03:25.452Z,100698.00
2022-09-04T13:06:06.391Z,100693.00
2022-09-04T13:08:56.102Z,100700.00
2022-09-04T13:11:37.213Z,100690.00
2022-09-04T13:14:14.914Z,100680.00
2022-09-04T13:16:55.749Z,100674.00
2022-09-04T13:19:39.637Z,100667.00
2022-09-04T13:22:41.758Z,100666.00
2022-09-04T13:25:23.640Z,100652.00
2022-09-04T13:28:17.070Z,100649.00
2022-09-04T13:30:53.205Z,100655.00
2022-09-04T13:33:33.174Z,100646.00
2022-09-04T13:36:12.019Z,100645.00
2022-09-04T13:39:12.690Z,100639.00
2022-09-04T13:41:59.732Z,100631.00
2022-09-04T13:44:41.845Z,100624.00
2022-09-04T13:47:22.880Z,100619.00
2022-09-04T13:50:13.222Z,100620.00
2022-09-04T13:53:00.119Z,100631.00
2022-09-04T13:55:35.212Z,100619.00
2022-09-04T13:58:25.701Z,100617.00
2022-09-04T14:01:01.206Z,100601.00
2022-09-04T14:03:45.485Z,100611.00
2022-09-04T14:06:20.235Z,100607.00
2022-09-04T14:09:05.639Z,100600.00
2022-09-04T14:11:48.138Z,100595.00
2022-09-04T14:14:23.089Z,100600.00
2022-09-04T14:16:58.154Z,100594.00
2022-09-04T14:19:40.712Z,100587.00
2022-09-04T14:22:18.331Z,100587.00
2022-09-04T14:25:11.951Z,100576.00
2022-09-04T14:28:11.357Z,100567.00
2022-09-04T14:30:49.163Z,100557.00
2022-09-04T14:33:35.494Z,100553.00
2022-09-04T14:36:11.896Z,100551.00
2022-09-04T14:38:58.873Z,100557.00
2022-09-04T14:41:45.924Z,100567.00
2022-09-04T14:44:20.443Z,100563.00
2022-09-04T14:47:16.057Z,100558.00
2022-09-04T14:49:51.138Z,100538.00
2022-09-04T14:52:26.065Z,100517.00
2022-09-04T14:55:03.287Z,100539.00
2022-09-04T14:57:49.659Z,100543.00
2022-09-04T15:00:24.559Z,100548.00
2022-09-04T15:03:08.084Z,100543.00
2022-09-04T15:05:53.059Z,100536.00
2022-09-04T15:08:40.808Z,100543.00
2022-09-04T15:11:18.400Z,100539.00
2022-09-04T15:13:58.447Z,100530.00
2022-09-04T15:16:39.744Z,100543.00
2022-09-04T15:19:40.467Z,100546.00
2022-09-04T15:22:18.664Z,100541.00
2022-09-04T15:25:14.433Z,100537.00
2022-09-04T15:27:57.168Z,100532.00
2022-09-04T15:30:40.576Z,100522.00
2022-09-04T15:33:13.943Z,100523.00
2022-09-04T15:35:47.687Z,100514.00
2022-09-04T15:38:27.138Z,100507.00
2022-09-04T15:41:18.175Z,100493.00
2022-09-04T15:43:45.364Z,100489.00
2022-09-04T15:46:28.812Z,100492.00
2022-09-04T15:49:20.177Z,100484.00
2022-09-04T15:52:16.326Z,100478.00
2022-09-04T15:55:00.177Z,100468.00
2022-09-04T15:57:49.295Z,100455.00
2022-09-04T16:00:26.652Z,100452.00
2022-09-04T16:03:04.775Z,100458.00
2022-09-04T16:05:54.382Z,100459.00
2022-09-04T16:08:47.026Z,100447.00
2022-09-04T16:11:44.235Z,100453.00
2022-09-04T16:14:30.932Z,100446.00
2022-09-04T16:17:17.377Z,100446.00
2022-09-04T16:19:59.611Z,100438.00
2022-09-04T16:22:50.912Z,100430.00
2022-09-04T16:25:31.263Z,100413.00
2022-09-04T16:28:23.211Z,100414.00
2022-09-04T16:31:06.869Z,100409.00
2022-09-04T16:33:41.980Z,100410.00
2022-09-04T16:36:45.032Z,100401.00
2022-09-04T16:39:38.122Z,100394.00
2022-09-04T16:42:25.495Z,100383.00
2022-09-04T16:45:06.260Z,100375.00
2022-09-04T16:48:09.644Z,100378.00
2022-09-04T16:50:45.686Z,100379.00
2022-09-04T16:53:21.367Z,100366.00
2022-09-04T16:56:08.454Z,100362.00
2022-09-04T16:58:55.855Z,100363.00
2022-09-04T17:01:55.925Z,100353.00
2022-09-04T17:04:44.247Z,100351.00
2022-09-04T17:07:18.766Z,100344.00
2022-09-04T17:10:17.504Z,100335.00
2022-09-04T17:13:09.245Z,100332.00
2022-09-04T17:15:53.604Z,100326.00
2022-09-04T17:18:30.714Z,100318.00
2022-09-04T17:23:08.802Z,100333.00
2022-09-04T17:29:01.514Z,100323.00
2022-09-04T17:29:16.211Z,100316.00
2022-09-04T17:29:37.166Z,100272.00
2022-09-04T17:32:32.195Z,100316.00
2022-09-04T17:40:41.787Z,100316.00
2022-09-04T17:40:49.876Z,100309.00
2022-09-04T17:41:39.510Z,100304.00
2022-09-04T17:43:35.048Z,100299.00
2022-09-04T17:46:27.547Z,100287.00
2022-09-04T17:49:00.902Z,100265.00
2022-09-04T17:51:37.691Z,100260.00
2022-09-04T17:54:12.667Z,100267.00
2022-09-04T17:56:50.278Z,100270.00
2022-09-04T17:59:28.497Z,100272.00
2022-09-04T18:02:03.194Z,100266.00
2022-09-04T18:04:41.024Z,100265.00
2022-09-04T18:08:09.904Z,100259.00
2022-09-04T18:10:37.553Z,100264.00
2022-09-04T18:13:36.580Z,100267.00
2022-09-04T18:15:59.586Z,100257.00
2022-09-04T18:18:34.257Z,100251.00
2022-09-04T18:21:16.265Z,100258.00
2022-09-04T18:24:06.892Z,100260.00
2022-09-04T18:26:47.365Z,100265.00
2022-09-04T18:30:57.173Z,100261.00
2022-09-04T18:37:08.513Z,100242.00
2022-09-04T18:37:24.934Z,100245.00
2022-09-04T18:37:47.330Z,100254.00
2022-09-04T18:41:23.945Z,100239.00
2022-09-04T18:50:23.164Z,100228.00
2022-09-04T18:50:36.089Z,100209.00
2022-09-04T18:50:43.761Z,100215.00
2022-09-04T18:51:21.791Z,100207.00
2022-09-04T18:53:56.611Z,100222.00
2022-09-04T18:56:36.677Z,100218.00
2022-09-04T18:59:38.130Z,100200.00
2022-09-04T19:02:09.727Z,100188.00
2022-09-04T19:04:57.265Z,100178.00
2022-09-04T19:07:49.810Z,100183.00
2022-09-04T19:10:36.741Z,100171.00
2022-09-04T19:13:11.976Z,100153.00
2022-09-04T19:15:55.988Z,100144.00
2022-09-04T19:18:33.880Z,100129.00
2022-09-04T19:21:15.907Z,100118.00
2022-09-04T19:24:08.666Z,100118.00
2022-09-04T19:26:44.212Z,100134.00
2022-09-04T19:29:24.388Z,100141.00
2022-09-04T19:32:02.077Z,100143.00
2022-09-04T19:34:37.377Z,100155.00
2022-09-04T19:40:51.840Z,100150.00
2022-09-04T19:45:56.556Z,100148.00
2022-09-04T19:46:02.730Z,100148.00
2022-09-04T19:46:13.318Z,100142.00
2022-09-04T19:47:52.408Z,100146.00
2022-09-04T19:53:23.137Z,100130.00
2022-09-04T19:53:37.988Z,100123.00
2022-09-04T19:56:06.677Z,100140.00
2022-09-04T19:59:02.864Z,100132.00
2022-09-04T20:01:43.410Z,100110.00
2022-09-04T20:04:24.632Z,100102.00
2022-09-04T20:07:00.652Z,100117.00
2022-09-04T20:09:50.504Z,100148.00
2022-09-04T20:12:34.240Z,100118.00
2022-09-04T20:15:13.176Z,100089.00
2022-09-04T20:17:48.016Z,100092.00
2022-09-04T20:20:23.847Z,100091.00
2022-09-04T20:22:58.413Z,100068.00
2022-09-04T20:25:51.121Z,100058.00
2022-09-04T20:28:32.238Z,100064.00
2022-09-04T20:31:28.770Z,100044.00
2022-09-04T20:34:15.376Z,100041.00
2022-09-04T20:36:50.894Z,100021.00
2022-09-04T20:39:37.988Z,100018.00
2022-09-04T20:42:15.488Z,100000.00
2022-09-04T20:47:06.782Z,99995.00
2022-09-04T20:52:48.682Z,99987.00
2022-09-04T20:52:49.131Z,99964.00
2022-09-04T20:53:29.742Z,99954.00
2022-09-04T20:56:53.760Z,99949.00
2022-09-04T21:03:07.980Z,99955.00
2022-09-04T21:03:17.936Z,99936.00
2022-09-04T21:04:37.646Z,99934.00
2022-09-04T21:06:56.543Z,99933.00
2022-09-04T21:09:37.408Z,99937.00
2022-09-04T21:12:28.988Z,99923.00
2022-09-04T21:15:04.399Z,99917.00
2022-09-04T21:17:55.388Z,99906.00
2022-09-04T21:20:59.852Z,99912.00
2022-09-04T21:23:41.306Z,99920.00
2022-09-04T21:26:26.755Z,99916.00
2022-09-04T21:29:30.361Z,99895.00
2022-09-04T21:32:24.544Z,99899.00
2022-09-04T21:35:14.588Z,99887.00
2022-09-04T21:38:20.399Z,99872.00
2022-09-04T21:41:18.040Z,99870.00
2022-09-04T21:44:21.479Z,99850.00
2022-09-04T21:50:06.124Z,99812.00
2022-09-04T21:52:52.999Z,99804.00
2022-09-04T22:00:32.105Z,99783.00
2022-09-04T22:02:40.288Z,99762.00
2022-09-04T22:02:45.492Z,99759.00
2022-09-04T22:03:55.019Z,99749.00
2022-09-04T22:08:01.172Z,99755.00
2022-09-04T22:13:30.042Z,99727.00
2022-09-04T22:13:41.293Z,99707.00
2022-09-04T22:14:43.657Z,99704.00
2022-09-04T22:17:27.604Z,99694.00
2022-09-04T22:20:34.853Z,99685.00
2022-09-04T22:23:07.546Z,99695.00
2022-09-04T22:26:24.289Z,99674.00
2022-09-04T22:28:50.204Z,99632.00
2022-09-04T22:31:33.951Z,99605.00
2022-09-04T22:34:17.178Z,99592.00
2022-09-04T22:37:22.884Z,99587.00
2022-09-04T22:40:07.083Z,99568.00
2022-09-04T22:43:01.908Z,99568.00
2022-09-04T22:45:48.234Z,99561.00
2022-09-04T22:49:09.911Z,99557.00
2022-09-04T22:51:27.390Z,99570.00
2022-09-04T22:54:10.685Z,99566.00
2022-09-04T22:56:45.774Z,99549.00
2022-09-04T22:59:29.526Z,99547.00
2022-09-04T23:02:13.580Z,99553.00
2022-09-04T23:04:58.188Z,99526.00
2022-09-04T23:11:15.483Z,99518.00
2022-09-04T23:14:00.081Z,99515.00
2022-09-04T23:14:05.243Z,99513.00
2022-09-04T23:16:41.660Z,99510.00
2022-09-04T23:26:45.335Z,99492.00
2022-09-04T23:26:50.902Z,99488.00
2022-09-04T23:26:53.675Z,99494.00
2022-09-04T23:28:27.048Z,99483.00
2022-09-04T23:30:49.306Z,99468.00
2022-09-04T23:33:41.713Z,99449.00
2022-09-04T23:36:33.704Z,99422.00
2022-09-04T23:39:15.395Z,99413.00
2022-09-04T23:41:59.067Z,99417.00
2022-09-04T23:44:59.411Z,99405.00
2022-09-04T23:47:53.624Z,99380.00
2022-09-04T23:50:28.299Z,99390.00
2022-09-04T23:53:17.890Z,99376.00
2022-09-04T23:56:16.451Z,99379.00
2022-09-04T23:59:33.861Z,99370.00
